createdAt,value
2018-10-12T00:00:26.276Z,0
2018-10-12T00:01:26.525Z,0
2018-10-12T00:02:27.883Z,0
2018-10-12T00:03:29.542Z,0
2018-10-12T00:04:29.895Z,0
2018-10-12T00:05:31.523Z,0
2018-10-12T00:06:31.319Z,0
2018-10-12T00:07:31.836Z,0
2018-10-12T00:08:32.913Z,0
2018-10-12T00:09:33.991Z,0
2018-10-12T00:10:35.063Z,0
2018-10-12T00:11:35.589Z,0
2018-10-12T00:12:36.665Z,0
2018-10-12T00:13:37.459Z,0
2018-10-12T00:14:38.529Z,0
2018-10-12T00:15:39.325Z,0
2018-10-12T00:16:39.565Z,0
2018-10-12T00:17:41.367Z,0
2018-10-12T00:18:41.610Z,0
2018-10-12T00:19:43.407Z,0
2018-10-12T00:20:43.925Z,0
2018-10-12T00:21:45.453Z,0
2018-10-12T00:22:45.972Z,0
2018-10-12T00:23:47.604Z,0
2018-10-12T00:24:47.676Z,0
2018-10-12T00:25:48.473Z,0
2018-10-12T00:26:49.001Z,0
2018-10-12T00:27:50.071Z,0
2018-10-12T00:28:50.144Z,0
2018-10-12T00:29:51.218Z,0
2018-10-12T00:30:52.568Z,0
2018-10-12T00:31:52.538Z,0
2018-10-12T00:32:53.892Z,0
2018-10-12T00:33:54.130Z,0
2018-10-12T00:34:56.202Z,0
2018-10-12T00:35:56.447Z,0
2018-10-12T00:36:56.965Z,0
2018-10-12T00:37:57.485Z,0
2018-10-12T00:38:59.278Z,0
2018-10-12T00:40:00.074Z,0
2018-10-12T00:41:00.597Z,0
2018-10-12T00:42:02.403Z,0
2018-10-12T00:43:02.765Z,0
2018-10-12T00:44:03.117Z,0
2018-10-12T00:45:04.474Z,0
2018-10-12T00:46:03.991Z,0
2018-10-12T00:47:04.787Z,0
2018-10-12T00:48:05.307Z,0
2018-10-12T00:49:06.104Z,0
2018-10-12T00:50:06.732Z,0
2018-10-12T00:51:07.082Z,0
2018-10-12T00:52:08.722Z,0
2018-10-12T00:53:09.665Z,0
2018-10-12T00:54:09.183Z,0
2018-10-12T00:55:09.979Z,0
2018-10-12T00:56:10.775Z,0
2018-10-12T00:57:12.851Z,0
2018-10-12T00:58:13.368Z,0
2018-10-12T00:59:15.440Z,0
2018-10-12T01:00:16.515Z,0
2018-10-12T01:01:17.036Z,0
2018-10-12T01:02:18.011Z,0
2018-10-12T01:03:19.533Z,0
2018-10-12T01:04:20.329Z,0
2018-10-12T01:05:21.721Z,0
2018-10-12T01:06:21.801Z,0
2018-10-12T01:07:22.594Z,0
2018-10-12T01:08:23.390Z,0
2018-10-12T01:09:24.186Z,0
2018-10-12T01:10:25.021Z,0
2018-10-12T01:11:26.094Z,0
2018-10-12T01:12:26.933Z,0
2018-10-12T01:13:28.004Z,0
2018-10-12T01:14:28.526Z,0
2018-10-12T01:15:29.043Z,0
2018-10-12T01:16:30.126Z,0
2018-10-12T01:17:30.644Z,0
2018-10-12T01:18:31.995Z,0
2018-10-12T01:19:32.236Z,0
2018-10-12T01:20:34.316Z,0
2018-10-12T01:21:34.941Z,0
2018-10-12T01:22:35.213Z,0
2018-10-12T01:23:36.286Z,0
2018-10-12T01:24:36.804Z,0
2018-10-12T01:25:38.155Z,0
2018-10-12T01:26:37.671Z,0
2018-10-12T01:27:38.744Z,0
2018-10-12T01:28:38.984Z,0
2018-10-12T01:29:39.788Z,0
2018-10-12T01:30:42.137Z,0
2018-10-12T01:31:41.655Z,0
2018-10-12T01:32:42.639Z,0
2018-10-12T01:33:44.002Z,0
2018-10-12T01:34:43.796Z,0
2018-10-12T01:35:44.312Z,0
2018-10-12T01:36:45.669Z,0
2018-10-12T01:37:46.295Z,0
2018-10-12T01:38:46.370Z,0
2018-10-12T01:39:47.167Z,0
2018-10-12T01:40:48.243Z,0
2018-10-12T01:41:48.485Z,0
2018-10-12T01:42:50.871Z,0
2018-10-12T01:43:50.672Z,0
2018-10-12T01:44:52.305Z,0
2018-10-12T01:45:53.096Z,0
2018-10-12T01:46:54.721Z,0
2018-10-12T01:47:54.552Z,0
2018-10-12T01:48:55.623Z,0
2018-10-12T01:49:56.420Z,0
2018-10-12T01:50:57.219Z,0
2018-10-12T01:51:57.735Z,0
2018-10-12T01:52:58.541Z,0
2018-10-12T01:53:59.613Z,0
2018-10-12T01:55:00.136Z,0
2018-10-12T01:56:01.493Z,0
2018-10-12T01:57:02.295Z,0
2018-10-12T01:58:03.092Z,0
2018-10-12T01:59:03.606Z,0
2018-10-12T02:00:05.523Z,0
2018-10-12T02:01:05.593Z,0
2018-10-12T02:02:05.673Z,0
2018-10-12T02:03:07.473Z,0
2018-10-12T02:04:08.269Z,0
2018-10-12T02:05:09.349Z,0
2018-10-12T02:06:09.868Z,0
2018-10-12T02:07:11.226Z,0
2018-10-12T02:08:12.302Z,0
2018-10-12T02:09:13.382Z,0
2018-10-12T02:10:13.900Z,0
2018-10-12T02:11:15.696Z,0
2018-10-12T02:12:16.765Z,0
2018-10-12T02:13:17.741Z,0
2018-10-12T02:14:18.541Z,0
2018-10-12T02:15:19.890Z,0
2018-10-12T02:16:20.520Z,0
2018-10-12T02:17:21.873Z,0
2018-10-12T02:18:22.392Z,0
2018-10-12T02:19:23.468Z,0
2018-10-12T02:20:23.999Z,0
2018-10-12T02:21:25.070Z,0
2018-10-12T02:22:26.148Z,0
2018-10-12T02:23:26.953Z,0
2018-10-12T02:24:27.590Z,0
2018-10-12T02:25:28.811Z,0
2018-10-12T02:26:28.614Z,0
2018-10-12T02:27:29.128Z,0
2018-10-12T02:28:30.477Z,0
2018-10-12T02:29:30.000Z,0
2018-10-12T02:30:32.187Z,0
2018-10-12T02:31:33.094Z,0
2018-10-12T02:32:33.726Z,0
2018-10-12T02:33:33.979Z,0
2018-10-12T02:34:35.053Z,0
2018-10-12T02:35:35.570Z,0
2018-10-12T02:36:36.922Z,0
2018-10-12T02:37:38.276Z,0
2018-10-12T02:38:38.625Z,0
2018-10-12T02:39:40.671Z,0
2018-10-12T02:40:40.440Z,0
2018-10-12T02:41:41.519Z,0
2018-10-12T02:42:42.707Z,0
2018-10-12T02:43:42.679Z,0
2018-10-12T02:44:43.192Z,0
2018-10-12T02:45:44.544Z,0
2018-10-12T02:46:44.896Z,0
2018-10-12T02:47:45.524Z,0
2018-10-12T02:48:45.040Z,0
2018-10-12T02:49:47.114Z,0
2018-10-12T02:50:48.463Z,0
2018-10-12T02:51:49.538Z,0
2018-10-12T02:52:50.378Z,0
2018-10-12T02:53:50.929Z,0
2018-10-12T02:54:52.007Z,0
2018-10-12T02:55:53.361Z,0
2018-10-12T02:56:54.709Z,0
2018-10-12T02:57:54.790Z,0
2018-10-12T02:58:55.309Z,0
2018-10-12T02:59:56.378Z,0
2018-10-12T03:00:57.728Z,0
2018-10-12T03:01:59.083Z,0
2018-10-12T03:02:59.880Z,0
2018-10-12T03:04:01.271Z,0
2018-10-12T03:05:00.789Z,0
2018-10-12T03:06:01.306Z,0
2018-10-12T03:07:02.668Z,0
2018-10-12T03:08:03.748Z,0
2018-10-12T03:09:04.271Z,0
2018-10-12T03:10:05.350Z,0
2018-10-12T03:11:06.144Z,0
2018-10-12T03:12:07.775Z,0
2018-10-12T03:13:08.682Z,0
2018-10-12T03:14:09.072Z,0
2018-10-12T03:15:09.148Z,0
2018-10-12T03:16:11.054Z,0
2018-10-12T03:17:11.408Z,0
2018-10-12T03:18:11.757Z,0
2018-10-12T03:19:11.834Z,0
2018-10-12T03:20:11.633Z,0
2018-10-12T03:21:12.711Z,0
2018-10-12T03:22:13.505Z,0
2018-10-12T03:23:13.576Z,0
2018-10-12T03:24:14.820Z,0
2018-10-12T03:25:16.186Z,0
2018-10-12T03:26:16.536Z,0
2018-10-12T03:27:17.615Z,0
2018-10-12T03:28:19.256Z,0
2018-10-12T03:29:18.777Z,0
2018-10-12T03:30:20.995Z,0
2018-10-12T03:31:22.461Z,0
2018-10-12T03:32:23.656Z,0
2018-10-12T03:33:23.451Z,0
2018-10-12T03:34:24.266Z,0
2018-10-12T03:35:25.894Z,0
2018-10-12T03:36:27.079Z,0
2018-10-12T03:37:28.364Z,0
2018-10-12T03:38:28.721Z,0
2018-10-12T03:39:29.522Z,0
2018-10-12T03:40:30.596Z,0
2018-10-12T03:41:31.392Z,0
2018-10-12T03:42:31.631Z,0
2018-10-12T03:43:33.980Z,0
2018-10-12T03:44:33.993Z,0
2018-10-12T03:45:35.640Z,0
2018-10-12T03:46:35.714Z,0
2018-10-12T03:47:37.067Z,0
2018-10-12T03:48:38.706Z,0
2018-10-12T03:49:38.500Z,0
2018-10-12T03:50:39.296Z,0
2018-10-12T03:51:40.368Z,0
2018-10-12T03:52:40.884Z,0
2018-10-12T03:53:41.402Z,0
2018-10-12T03:54:42.485Z,0
2018-10-12T03:55:42.842Z,0
2018-10-12T03:56:43.467Z,0
2018-10-12T03:57:44.538Z,0
2018-10-12T03:58:45.343Z,0
2018-10-12T03:59:46.416Z,0
2018-10-12T04:00:47.212Z,0
2018-10-12T04:01:48.565Z,0
2018-10-12T04:02:51.236Z,0
2018-10-12T04:03:50.782Z,0
2018-10-12T04:04:51.762Z,0
2018-10-12T04:05:53.113Z,0
2018-10-12T04:06:54.187Z,0
2018-10-12T04:07:54.261Z,0
2018-10-12T04:08:54.779Z,0
2018-10-12T04:09:56.687Z,0
2018-10-12T04:10:57.047Z,0
2018-10-12T04:11:57.564Z,0
2018-10-12T04:12:58.647Z,0
2018-10-12T04:13:59.733Z,0
2018-10-12T04:15:00.560Z,0
2018-10-12T04:16:01.638Z,0
2018-10-12T04:17:03.827Z,0
2018-10-12T04:18:04.459Z,0
2018-10-12T04:19:05.258Z,0
2018-10-12T04:20:05.776Z,0
2018-10-12T04:21:06.578Z,0
2018-10-12T04:22:07.376Z,0
2018-10-12T04:23:08.171Z,0
2018-10-12T04:24:08.969Z,0
2018-10-12T04:25:10.050Z,0
2018-10-12T04:26:11.160Z,0
2018-10-12T04:27:12.232Z,0
2018-10-12T04:28:13.027Z,0
2018-10-12T04:29:13.545Z,0
2018-10-12T04:30:14.616Z,0
2018-10-12T04:31:14.971Z,0
2018-10-12T04:32:15.770Z,0
2018-10-12T04:33:16.565Z,0
2018-10-12T04:34:17.355Z,0
2018-10-12T04:35:02.743Z,0
2018-10-12T04:36:03.033Z,0
2018-10-12T04:37:04.106Z,0
2018-10-12T04:38:04.733Z,0
2018-10-12T04:39:05.532Z,0
2018-10-12T04:40:06.329Z,0
2018-10-12T04:41:07.398Z,0
2018-10-12T04:42:08.202Z,0
2018-10-12T04:43:08.994Z,0
2018-10-12T04:44:09.514Z,0
2018-10-12T04:45:10.586Z,0
2018-10-12T04:46:11.407Z,0
2018-10-12T04:47:12.907Z,0
2018-10-12T04:48:12.712Z,0
2018-10-12T04:49:14.682Z,0
2018-10-12T04:50:15.029Z,0
2018-10-12T04:51:16.101Z,0
2018-10-12T04:52:17.189Z,0
2018-10-12T04:53:17.538Z,0
2018-10-12T04:54:19.186Z,0
2018-10-12T04:55:19.261Z,0
2018-10-12T04:56:20.103Z,0
2018-10-12T04:57:21.184Z,0
2018-10-12T04:58:21.980Z,0
2018-10-12T04:59:22.501Z,0
2018-10-12T05:00:23.572Z,0
2018-10-12T05:01:24.652Z,0
2018-10-12T05:02:25.446Z,0
2018-10-12T05:03:26.797Z,0
2018-10-12T05:04:26.605Z,0
2018-10-12T05:05:28.247Z,0
2018-10-12T05:06:28.258Z,0
2018-10-12T05:07:29.399Z,0
2018-10-12T05:08:30.476Z,0
2018-10-12T05:09:31.850Z,0
2018-10-12T05:10:32.645Z,0
2018-10-12T05:11:33.448Z,0
2018-10-12T05:12:34.798Z,0
2018-10-12T05:13:36.161Z,0
2018-10-12T05:14:36.869Z,0
2018-10-12T05:15:37.317Z,0
2018-10-12T05:16:37.567Z,0
2018-10-12T05:17:38.918Z,0
2018-10-12T05:18:39.163Z,0
2018-10-12T05:19:40.788Z,0
2018-10-12T05:20:40.863Z,0
2018-10-12T05:21:41.657Z,0
2018-10-12T05:22:42.733Z,0
2018-10-12T05:23:43.089Z,0
2018-10-12T05:24:45.283Z,0
2018-10-12T05:25:45.637Z,0
2018-10-12T05:26:46.719Z,5.63
2018-10-12T05:27:47.799Z,5.63
2018-10-12T05:28:47.319Z,5.63
2018-10-12T05:29:48.840Z,5.63
2018-10-12T05:30:49.912Z,5.63
2018-10-12T05:31:50.986Z,5.63
2018-10-12T05:32:52.062Z,5.63
2018-10-12T05:33:52.141Z,5.63
2018-10-12T05:34:52.937Z,11.25
2018-10-12T05:35:54.446Z,11.25
2018-10-12T05:36:55.172Z,11.25
2018-10-12T05:37:54.708Z,11.25
2018-10-12T05:38:54.946Z,11.25
2018-10-12T05:39:57.024Z,11.25
2018-10-12T05:40:57.544Z,16.88
2018-10-12T05:41:58.623Z,16.88
2018-10-12T05:43:00.376Z,16.88
2018-10-12T05:44:00.038Z,16.88
2018-10-12T05:45:00.393Z,16.88
2018-10-12T05:46:02.028Z,16.88
2018-10-12T05:47:02.568Z,22.5
2018-10-12T05:48:02.365Z,22.5
2018-10-12T05:49:03.779Z,22.5
2018-10-12T05:50:04.411Z,22.5
2018-10-12T05:51:05.319Z,22.5
2018-10-12T05:52:05.215Z,28.13
2018-10-12T05:53:05.773Z,28.13
2018-10-12T05:54:06.292Z,28.13
2018-10-12T05:55:07.389Z,28.13
2018-10-12T05:56:08.461Z,33.75
2018-10-12T05:57:08.783Z,33.75
2018-10-12T05:58:10.151Z,33.75
2018-10-12T05:59:11.248Z,33.75
2018-10-12T06:00:12.050Z,39.38
2018-10-12T06:01:15.746Z,39.38
2018-10-12T06:02:15.303Z,39.38
2018-10-12T06:03:16.380Z,45
2018-10-12T06:04:16.919Z,45
2018-10-12T06:05:18.108Z,45
2018-10-12T06:06:18.907Z,45
2018-10-12T06:07:21.083Z,50.63
2018-10-12T06:08:23.002Z,50.63
2018-10-12T06:09:26.028Z,50.63
2018-10-12T06:10:27.476Z,56.25
2018-10-12T06:11:26.643Z,56.25
2018-10-12T06:12:24.928Z,56.25
2018-10-12T06:13:25.727Z,56.25
2018-10-12T06:14:27.075Z,56.25
2018-10-12T06:15:28.480Z,61.88
2018-10-12T06:16:28.499Z,73.13
2018-10-12T06:17:29.787Z,78.75
2018-10-12T06:18:31.113Z,73.13
2018-10-12T06:19:31.964Z,73.13
2018-10-12T06:20:34.762Z,61.88
2018-10-12T06:21:34.032Z,61.88
2018-10-12T06:22:35.390Z,67.5
2018-10-12T06:23:36.651Z,67.5
2018-10-12T06:24:42.578Z,73.13
2018-10-12T06:24:50.004Z,73.13
2018-10-12T06:25:51.469Z,78.75
2018-10-12T06:26:52.758Z,73.13
2018-10-12T06:27:53.716Z,84.38
2018-10-12T06:28:53.491Z,84.38
2018-10-12T06:29:56.371Z,84.38
2018-10-12T06:30:57.983Z,90
2018-10-12T06:31:57.487Z,84.38
2018-10-12T06:33:00.367Z,78.75
2018-10-12T06:33:59.989Z,78.75
2018-10-12T06:35:01.485Z,84.38
2018-10-12T06:36:02.018Z,90
2018-10-12T06:37:02.681Z,90
2018-10-12T06:38:03.949Z,84.38
2018-10-12T06:39:05.040Z,90
2018-10-12T06:40:05.838Z,90
2018-10-12T06:41:08.198Z,90
2018-10-12T06:42:07.617Z,90
2018-10-12T06:43:08.142Z,90
2018-10-12T06:44:10.477Z,90
2018-10-12T06:45:10.312Z,90
2018-10-12T06:46:10.015Z,90
2018-10-12T06:47:11.816Z,95.63
2018-10-12T06:48:12.896Z,95.63
2018-10-12T06:49:13.699Z,95.63
2018-10-12T06:50:14.225Z,101.25
2018-10-12T06:51:15.744Z,101.25
2018-10-12T06:52:16.293Z,101.25
2018-10-12T06:53:17.437Z,106.88
2018-10-12T06:54:17.519Z,106.88
2018-10-12T06:55:19.157Z,112.5
2018-10-12T06:56:19.136Z,112.5
2018-10-12T06:57:19.379Z,163.13
2018-10-12T06:58:20.932Z,528.75
2018-10-12T06:59:22.564Z,1040.63
2018-10-12T07:00:22.378Z,1226.25
2018-10-12T07:01:23.746Z,697.5
2018-10-12T07:02:24.272Z,202.5
2018-10-12T07:03:26.417Z,157.5
2018-10-12T07:04:25.957Z,264.38
2018-10-12T07:05:26.263Z,337.5
2018-10-12T07:06:27.189Z,208.13
2018-10-12T07:07:27.431Z,168.75
2018-10-12T07:08:28.957Z,236.25
2018-10-12T07:09:30.311Z,286.88
2018-10-12T07:10:31.113Z,303.75
2018-10-12T07:11:31.914Z,208.13
2018-10-12T07:12:32.438Z,185.63
2018-10-12T07:13:34.928Z,146.25
2018-10-12T07:14:35.035Z,151.88
2018-10-12T07:15:35.839Z,146.25
2018-10-12T07:16:37.119Z,146.25
2018-10-12T07:17:37.923Z,146.25
2018-10-12T07:18:38.748Z,146.25
2018-10-12T07:19:41.136Z,146.25
2018-10-12T07:20:40.125Z,185.63
2018-10-12T07:21:41.930Z,191.25
2018-10-12T07:22:43.044Z,168.75
2018-10-12T07:23:44.686Z,174.38
2018-10-12T07:24:45.500Z,286.88
2018-10-12T07:25:47.685Z,528.75
2018-10-12T07:26:47.498Z,742.5
2018-10-12T07:27:48.574Z,770.63
2018-10-12T07:28:49.100Z,573.75
2018-10-12T07:29:49.658Z,331.88
2018-10-12T07:30:51.387Z,371.25
2018-10-12T07:31:51.745Z,646.88
2018-10-12T07:32:51.553Z,1001.25
2018-10-12T07:33:52.995Z,911.25
2018-10-12T07:34:54.014Z,495
2018-10-12T07:35:54.600Z,450
2018-10-12T07:36:56.572Z,562.5
2018-10-12T07:37:56.980Z,624.38
2018-10-12T07:38:58.060Z,613.13
2018-10-12T07:39:58.706Z,286.88
2018-10-12T07:40:58.794Z,191.25
2018-10-12T07:41:59.321Z,191.25
2018-10-12T07:43:00.130Z,180
2018-10-12T07:44:01.217Z,168.75
2018-10-12T07:45:02.297Z,236.25
2018-10-12T07:46:03.100Z,270
2018-10-12T07:47:04.375Z,331.88
2018-10-12T07:48:06.805Z,523.13
2018-10-12T07:49:06.203Z,506.25
2018-10-12T07:50:06.560Z,405
2018-10-12T07:51:07.553Z,405
2018-10-12T07:52:07.799Z,275.63
2018-10-12T07:53:11.137Z,213.75
2018-10-12T07:54:10.657Z,461.25
2018-10-12T07:55:11.648Z,607.5
2018-10-12T07:56:12.567Z,410.63
2018-10-12T07:57:14.342Z,292.5
2018-10-12T07:58:14.651Z,495
2018-10-12T07:59:15.777Z,601.88
2018-10-12T08:00:19.369Z,551.25
2018-10-12T08:01:17.262Z,843.75
2018-10-12T08:02:19.152Z,1501.88
2018-10-12T08:03:18.960Z,1091.25
2018-10-12T08:04:19.207Z,303.75
2018-10-12T08:05:21.306Z,371.25
2018-10-12T08:06:23.150Z,225
2018-10-12T08:07:23.003Z,191.25
2018-10-12T08:08:23.536Z,185.63
2018-10-12T08:09:25.339Z,286.88
2018-10-12T08:10:25.754Z,787.5
2018-10-12T08:11:26.559Z,815.63
2018-10-12T08:12:27.188Z,444.38
2018-10-12T08:13:29.397Z,202.5
2018-10-12T08:14:29.197Z,191.25
2018-10-12T08:15:30.003Z,191.25
2018-10-12T08:16:30.830Z,191.25
2018-10-12T08:17:31.543Z,191.25
2018-10-12T08:18:32.927Z,196.88
2018-10-12T08:19:33.187Z,253.13
2018-10-12T08:20:35.502Z,292.5
2018-10-12T08:21:35.616Z,241.88
2018-10-12T08:22:36.978Z,315
2018-10-12T08:23:37.139Z,331.88
2018-10-12T08:24:37.943Z,264.38
2018-10-12T08:25:39.131Z,270
2018-10-12T08:26:39.303Z,275.63
2018-10-12T08:27:40.065Z,281.25
2018-10-12T08:28:40.587Z,270
2018-10-12T08:29:41.832Z,281.25
2018-10-12T08:30:41.908Z,348.75
2018-10-12T08:31:42.710Z,286.88
2018-10-12T08:32:43.794Z,264.38
2018-10-12T08:33:46.129Z,258.75
2018-10-12T08:34:45.024Z,326.25
2018-10-12T08:35:46.655Z,607.5
2018-10-12T08:36:46.483Z,1350
2018-10-12T08:37:48.111Z,1468.13
2018-10-12T08:38:48.923Z,1170
2018-10-12T08:39:49.450Z,1001.25
2018-10-12T08:40:50.810Z,275.63
2018-10-12T08:41:53.626Z,337.5
2018-10-12T08:42:52.509Z,483.75
2018-10-12T08:43:53.592Z,506.25
2018-10-12T08:44:55.547Z,495
2018-10-12T08:45:55.632Z,472.5
2018-10-12T08:46:56.160Z,247.5
2018-10-12T08:47:57.720Z,213.75
2018-10-12T08:48:59.584Z,213.75
2018-10-12T08:49:59.947Z,253.13
2018-10-12T08:51:00.775Z,236.25
2018-10-12T08:52:01.639Z,202.5
2018-10-12T08:53:02.285Z,202.5
2018-10-12T08:54:02.810Z,213.75
2018-10-12T08:55:04.446Z,208.13
2018-10-12T08:56:04.249Z,208.13
2018-10-12T08:57:05.092Z,208.13
2018-10-12T08:58:05.930Z,208.13
2018-10-12T08:59:06.228Z,208.13
2018-10-12T09:00:07.310Z,247.5
2018-10-12T09:01:07.389Z,253.13
2018-10-12T09:02:08.476Z,213.75
2018-10-12T09:03:09.740Z,511.88
2018-10-12T09:04:09.824Z,1552.5
2018-10-12T09:05:10.910Z,2154.38
2018-10-12T09:06:11.440Z,1777.5
2018-10-12T09:07:11.971Z,534.38
2018-10-12T09:08:13.510Z,219.38
2018-10-12T09:09:13.869Z,264.38
2018-10-12T09:10:15.508Z,247.5
2018-10-12T09:11:15.320Z,236.25
2018-10-12T09:12:16.403Z,320.63
2018-10-12T09:13:16.650Z,421.88
2018-10-12T09:14:18.455Z,315
2018-10-12T09:15:19.316Z,225
2018-10-12T09:16:22.470Z,230.63
2018-10-12T09:17:22.567Z,230.63
2018-10-12T09:18:25.086Z,275.63
2018-10-12T09:19:24.232Z,241.88
2018-10-12T09:20:24.889Z,241.88
2018-10-12T09:21:25.527Z,236.25
2018-10-12T09:22:26.336Z,236.25
2018-10-12T09:23:27.241Z,365.63
2018-10-12T09:24:27.809Z,388.13
2018-10-12T09:25:28.892Z,253.13
2018-10-12T09:26:29.971Z,236.25
2018-10-12T09:27:31.055Z,236.25
2018-10-12T09:28:31.875Z,241.88
2018-10-12T09:29:33.333Z,303.75
2018-10-12T09:30:33.815Z,438.75
2018-10-12T09:31:34.726Z,410.63
2018-10-12T09:32:35.527Z,258.75
2018-10-12T09:33:36.606Z,241.88
2018-10-12T09:34:37.410Z,241.88
2018-10-12T09:35:39.479Z,241.88
2018-10-12T09:36:40.220Z,236.25
2018-10-12T09:37:39.380Z,236.25
2018-10-12T09:38:40.346Z,236.25
2018-10-12T09:39:41.982Z,236.25
2018-10-12T09:40:41.784Z,236.25
2018-10-12T09:41:43.401Z,241.88
2018-10-12T09:43:00.372Z,247.5
2018-10-12T09:43:58.405Z,258.75
2018-10-12T09:44:59.863Z,320.63
2018-10-12T09:45:59.670Z,292.5
2018-10-12T09:47:05.974Z,253.13
2018-10-12T09:47:18.723Z,258.75
2018-10-12T09:48:07.112Z,275.63
2018-10-12T09:49:04.611Z,399.38
2018-10-12T09:50:05.415Z,523.13
2018-10-12T09:51:06.544Z,298.13
2018-10-12T09:52:08.983Z,528.75
2018-10-12T09:53:07.600Z,1310.63
2018-10-12T09:54:08.487Z,2986.88
2018-10-12T09:55:09.653Z,3510
2018-10-12T09:56:10.195Z,3330
2018-10-12T09:57:11.003Z,3245.63
2018-10-12T09:58:12.371Z,3105
2018-10-12T09:59:13.188Z,3639.38
2018-10-12T10:00:14.085Z,3628.13
2018-10-12T10:01:15.209Z,3622.5
2018-10-12T10:02:19.365Z,3622.5
2018-10-12T10:03:17.812Z,3622.5
2018-10-12T10:04:17.195Z,3633.75
2018-10-12T10:05:19.167Z,3639.38
2018-10-12T10:06:20.034Z,3628.13
2018-10-12T10:07:20.398Z,3622.5
2018-10-12T10:08:23.707Z,3622.5
2018-10-12T10:09:22.756Z,3616.88
2018-10-12T10:10:22.870Z,3650.63
2018-10-12T10:11:23.754Z,3673.13
2018-10-12T10:12:24.289Z,3695.63
2018-10-12T10:13:25.104Z,3706.88
2018-10-12T10:14:25.641Z,3718.13
2018-10-12T10:15:28.630Z,3706.88
2018-10-12T10:16:27.130Z,3695.63
2018-10-12T10:17:27.390Z,3673.13
2018-10-12T10:18:28.478Z,3645
2018-10-12T10:19:29.703Z,3650.63
2018-10-12T10:20:30.514Z,3667.5
2018-10-12T10:21:31.602Z,3684.38
2018-10-12T10:22:34.784Z,3656.25
2018-10-12T10:23:33.063Z,3673.13
2018-10-12T10:24:34.518Z,3690
2018-10-12T10:25:35.333Z,3723.75
2018-10-12T10:26:36.145Z,3723.75
2018-10-12T10:27:37.237Z,3706.88
2018-10-12T10:28:38.612Z,3678.75
2018-10-12T10:29:38.725Z,3639.38
2018-10-12T10:30:39.542Z,3605.63
2018-10-12T10:31:41.111Z,2885.63
2018-10-12T10:32:41.759Z,2666.25
2018-10-12T10:33:42.851Z,3571.88
2018-10-12T10:34:43.389Z,3285
2018-10-12T10:35:44.311Z,3296.25
2018-10-12T10:36:45.401Z,2649.38
2018-10-12T10:37:45.965Z,2036.25
2018-10-12T10:38:47.057Z,2216.25
2018-10-12T10:39:48.096Z,1755
2018-10-12T10:40:48.900Z,2008.13
2018-10-12T10:41:49.996Z,2295
2018-10-12T10:42:51.084Z,1260
2018-10-12T10:43:51.341Z,860.63
2018-10-12T10:44:52.738Z,1153.13
2018-10-12T10:45:53.869Z,1440
2018-10-12T10:46:53.958Z,1186.88
2018-10-12T10:47:55.331Z,871.88
2018-10-12T10:48:55.709Z,1327.5
2018-10-12T10:49:55.976Z,1878.75
2018-10-12T10:50:57.236Z,2413.13
2018-10-12T10:51:59.289Z,2345.63
2018-10-12T10:52:58.777Z,2604.38
2018-10-12T10:54:00.147Z,2784.38
2018-10-12T10:55:01.261Z,2491.88
2018-10-12T10:56:00.812Z,1383.75
2018-10-12T10:57:02.909Z,1051.88
2018-10-12T10:58:04.010Z,1153.13
2018-10-12T10:59:04.837Z,1423.13
2018-10-12T11:00:05.672Z,1552.5
2018-10-12T11:01:06.689Z,1136.25
2018-10-12T11:02:08.778Z,2199.38
2018-10-12T11:03:09.159Z,2964.38
2018-10-12T11:04:09.416Z,3116.25
2018-10-12T11:05:10.518Z,2975.63
2018-10-12T11:06:12.799Z,2728.13
2018-10-12T11:07:13.450Z,2295
2018-10-12T11:08:14.729Z,1310.63
2018-10-12T11:09:14.817Z,1203.75
2018-10-12T11:10:16.652Z,1546.88
2018-10-12T11:11:17.512Z,3121.88
2018-10-12T11:12:20.675Z,2835
2018-10-12T11:13:21.480Z,1833.75
2018-10-12T11:14:21.150Z,1850.63
2018-10-12T11:15:21.252Z,1878.75
2018-10-12T11:16:22.615Z,1389.38
2018-10-12T11:17:23.438Z,1170
2018-10-12T11:18:24.251Z,1783.13
2018-10-12T11:19:25.717Z,2047.5
2018-10-12T11:20:26.774Z,1350
2018-10-12T11:21:27.861Z,1299.38
2018-10-12T11:22:28.758Z,1288.13
2018-10-12T11:23:30.256Z,1237.5
2018-10-12T11:24:32.414Z,753.75
2018-10-12T11:25:33.044Z,466.88
2018-10-12T11:26:34.842Z,461.25
2018-10-12T11:27:34.178Z,511.88
2018-10-12T11:28:34.755Z,534.38
2018-10-12T11:29:35.765Z,472.5
2018-10-12T11:30:36.392Z,708.75
2018-10-12T11:31:37.486Z,556.88
2018-10-12T11:32:38.960Z,540
2018-10-12T11:33:38.743Z,1040.63
2018-10-12T11:34:39.942Z,838.13
2018-10-12T11:35:41.221Z,1440
2018-10-12T11:36:41.307Z,1755
2018-10-12T11:37:43.261Z,1468.13
2018-10-12T11:38:44.589Z,1260
2018-10-12T11:39:44.409Z,1164.38
2018-10-12T11:40:44.843Z,1591.88
2018-10-12T11:41:46.541Z,1867.5
2018-10-12T11:42:46.409Z,1288.13
2018-10-12T11:43:47.219Z,933.75
2018-10-12T11:44:48.428Z,776.25
2018-10-12T11:45:50.403Z,787.5
2018-10-12T11:46:56.040Z,556.88
2018-10-12T11:47:02.511Z,725.63
2018-10-12T11:48:03.340Z,877.5
2018-10-12T11:49:03.938Z,1816.88
2018-10-12T11:50:04.812Z,2103.75
2018-10-12T11:51:06.186Z,1631.25
2018-10-12T11:52:08.216Z,1181.25
2018-10-12T11:53:07.427Z,1546.88
2018-10-12T11:54:09.300Z,1743.75
2018-10-12T11:55:09.772Z,2452.5
2018-10-12T11:56:10.369Z,2143.13
2018-10-12T11:57:11.902Z,1614.38
2018-10-12T11:58:12.203Z,1175.63
2018-10-12T11:59:13.347Z,1839.38
2018-10-12T12:00:14.532Z,1912.5
2018-10-12T12:01:15.066Z,1884.38
2018-10-12T12:02:16.740Z,1417.5
2018-10-12T12:03:15.838Z,826.88
2018-10-12T12:04:17.477Z,1361.25
2018-10-12T12:05:18.596Z,2148.75
2018-10-12T12:06:19.467Z,1580.63
2018-10-12T12:07:20.110Z,1203.75
2018-10-12T12:08:19.792Z,2131.88
2018-10-12T12:09:20.921Z,2497.5
2018-10-12T12:10:22.030Z,2148.75
2018-10-12T12:11:22.842Z,2266.88
2018-10-12T12:12:24.212Z,2019.38
2018-10-12T12:13:25.480Z,1648.13
2018-10-12T12:14:25.376Z,1850.63
2018-10-12T12:15:26.181Z,2328.75
2018-10-12T12:16:27.547Z,2649.38
2018-10-12T12:17:28.923Z,2998.13
2018-10-12T12:18:29.179Z,3206.25
2018-10-12T12:19:30.751Z,3189.38
2018-10-12T12:20:30.918Z,3178.13
2018-10-12T12:21:32.295Z,3178.13
2018-10-12T12:22:33.107Z,2790
2018-10-12T12:23:35.047Z,2846.25
2018-10-12T12:24:35.310Z,3211.88
2018-10-12T12:25:36.193Z,3217.5
2018-10-12T12:26:36.760Z,3223.13
2018-10-12T12:27:37.809Z,3200.63
2018-10-12T12:28:38.585Z,3183.75
2018-10-12T12:29:39.401Z,3178.13
2018-10-12T12:30:40.492Z,3133.13
2018-10-12T12:31:40.583Z,3116.25
2018-10-12T12:32:40.953Z,3009.38
2018-10-12T12:33:41.219Z,2829.38
2018-10-12T12:34:45.474Z,2081.25
2018-10-12T12:36:00.028Z,2604.38
2018-10-12T12:36:57.010Z,2722.5
2018-10-12T12:37:57.544Z,2632.5
2018-10-12T12:38:58.360Z,2874.38
2018-10-12T12:39:58.895Z,2694.38
2018-10-12T12:41:00.265Z,2137.5
2018-10-12T12:42:01.355Z,1203.75
2018-10-12T12:43:03.006Z,1074.38
2018-10-12T12:44:03.596Z,2193.75
2018-10-12T12:45:04.133Z,2705.63
2018-10-12T12:46:06.471Z,2840.63
2018-10-12T12:47:07.736Z,2880
2018-10-12T12:48:09.340Z,2857.5
2018-10-12T12:49:11.519Z,2840.63
2018-10-12T12:50:09.929Z,2829.38
2018-10-12T12:51:10.480Z,2806.88
2018-10-12T12:52:11.290Z,2790
2018-10-12T12:53:12.388Z,2767.5
2018-10-12T12:54:12.930Z,2739.38
2018-10-12T12:55:14.301Z,2716.88
2018-10-12T12:56:16.405Z,2705.63
2018-10-12T12:57:15.970Z,2711.25
2018-10-12T12:58:16.507Z,2694.38
2018-10-12T12:59:17.038Z,2700
2018-10-12T13:00:19.283Z,2711.25
2018-10-12T13:01:19.397Z,2694.38
2018-10-12T13:02:19.765Z,2688.75
2018-10-12T13:03:19.630Z,2660.63
2018-10-12T13:04:19.981Z,2626.88
2018-10-12T13:05:20.795Z,2553.75
2018-10-12T13:06:23.994Z,2531.25
2018-10-12T13:07:22.603Z,2542.5
2018-10-12T13:08:23.969Z,2531.25
2018-10-12T13:09:25.626Z,2435.63
2018-10-12T13:10:25.171Z,2323.13
2018-10-12T13:11:27.259Z,2452.5
2018-10-12T13:12:28.076Z,2503.13
2018-10-12T13:13:29.281Z,2452.5
2018-10-12T13:14:30.215Z,2413.13
2018-10-12T13:15:29.753Z,2362.5
2018-10-12T13:16:31.008Z,2205
2018-10-12T13:17:32.003Z,1411.88
2018-10-12T13:18:32.533Z,1766.25
2018-10-12T13:19:33.787Z,2064.38
2018-10-12T13:20:34.605Z,2160
2018-10-12T13:21:35.697Z,2103.75
2018-10-12T13:22:35.955Z,1996.88
2018-10-12T13:23:37.999Z,2385
2018-10-12T13:24:38.699Z,2385
2018-10-12T13:25:40.919Z,2362.5
2018-10-12T13:26:41.361Z,2345.63
2018-10-12T13:27:41.914Z,2311.88
2018-10-12T13:28:43.003Z,2295
2018-10-12T13:29:44.372Z,2289.38
